Time;durP1;ratioP1;P1;durP2;ratioP2;P2;SDS_P1;SDS_P2;PMS_P1;PMS_P2;Temp;Humidity;BMP_temperature;BMP_pressure;BME280_temperature;BME280_humidity;BME280_pressure;Samples;Min_cycle;Max_cycle;Signal;HPM_P1;HPM_P2
2021/05/04 00:01:46;;;;;;;5.15;3.08;;;;;;;13.17;37.80;98564.47;5015166;28;20056;-82
2021/05/04 00:04:12;;;;;;;4.35;3.63;;;;;;;13.18;37.65;98550.28;5013601;28;20526;-83
2021/05/04 00:06:38;;;;;;;4.00;3.20;;;;;;;13.20;37.93;98550.97;5013748;28;20050;-83
2021/05/04 00:09:05;;;;;;;4.47;3.10;;;;;;;13.20;37.86;98542.22;5014961;28;20053;-82
2021/05/04 00:11:32;;;;;;;5.32;2.97;;;;;;;13.21;37.70;98523.59;5014816;28;20053;-83
2021/05/04 00:13:58;;;;;;;4.65;3.58;;;;;;;13.22;37.54;98517.31;5014781;28;20050;-82
2021/05/04 00:16:24;;;;;;;4.03;3.05;;;;;;;13.23;37.79;98505.78;5017127;28;20073;-83
2021/05/04 00:18:50;;;;;;;5.25;3.20;;;;;;;13.22;37.71;98488.25;5031633;28;20522;-82
2021/05/04 00:21:17;;;;;;;5.55;3.67;;;;;;;13.23;37.69;98484.63;5033792;28;20058;-82
2021/05/04 00:23:43;;;;;;;5.22;3.20;;;;;;;13.24;37.55;98469.63;5034532;28;20422;-82
2021/05/04 00:26:10;;;;;;;6.05;3.20;;;;;;;13.23;37.51;98475.91;5034442;28;20438;-82
2021/05/04 00:28:37;;;;;;;4.47;2.92;;;;;;;13.23;37.81;98460.03;5034450;28;20136;-82
2021/05/04 00:31:03;;;;;;;4.85;3.45;;;;;;;13.23;37.77;98462.69;5034222;28;20057;-83
2021/05/04 00:33:29;;;;;;;4.38;3.70;;;;;;;13.21;37.72;98446.97;5031348;28;20053;-82
2021/05/04 00:35:56;;;;;;;6.30;3.08;;;;;;;13.22;37.53;98435.41;5013542;28;20065;-83
2021/05/04 00:38:22;;;;;;;6.22;3.25;;;;;;;13.24;37.55;98422.06;5014507;28;20050;-82
2021/05/04 00:40:49;;;;;;;4.57;3.22;;;;;;;13.25;37.81;98414.00;5013971;28;20061;-82
2021/05/04 00:43:16;;;;;;;6.90;3.40;;;;;;;13.24;37.42;98407.03;5016273;28;20057;-82
2021/05/04 00:45:43;;;;;;;3.78;3.20;;;;;;;13.26;37.58;98388.41;5016354;28;20061;-82
2021/05/04 00:48:10;;;;;;;5.65;3.30;;;;;;;13.27;37.48;98400.66;5014838;28;20058;-82
2021/05/04 00:50:36;;;;;;;6.32;2.97;;;;;;;13.27;37.39;98380.34;5023390;28;20482;-82
2021/05/04 00:53:03;;;;;;;5.85;3.22;;;;;;;13.28;37.65;98365.31;5036303;28;20056;-82
2021/05/04 00:55:32;;;;;;;5.28;3.45;;;;;;;13.27;37.45;98356.56;5033714;28;20053;-82
2021/05/04 00:58:00;;;;;;;4.70;3.40;;;;;;;13.29;37.44;98353.78;5037031;28;20103;-82
2021/05/04 01:00:27;;;;;;;5.25;3.63;;;;;;;13.30;37.69;98336.94;5033786;28;20057;-83
2021/05/04 01:02:55;;;;;;;6.40;3.10;;;;;;;13.29;37.40;98316.78;5034229;28;20503;-82
2021/05/04 01:05:21;;;;;;;4.45;2.90;;;;;;;13.32;37.47;98313.88;5032832;28;20053;-82
2021/05/04 01:07:48;;;;;;;5.40;3.53;;;;;;;13.34;37.52;98303.97;5014381;28;20077;-82
2021/05/04 01:10:14;;;;;;;5.10;3.22;;;;;;;13.35;37.56;98302.16;5014171;28;20045;-83
2021/05/04 01:12:41;;;;;;;5.47;3.28;;;;;;;13.35;37.37;98295.06;5014524;28;20049;-83
2021/05/04 01:15:07;;;;;;;6.60;3.30;;;;;;;13.39;37.34;98277.13;5014617;28;20050;-82
2021/05/04 01:17:34;;;;;;;4.78;3.00;;;;;;;13.39;37.14;98261.28;5012867;28;20045;-83
2021/05/04 01:20:01;;;;;;;3.90;3.10;;;;;;;13.43;37.16;98249.44;5014450;28;20061;-82
2021/05/04 01:22:27;;;;;;;5.20;2.95;;;;;;;13.48;37.22;98239.28;5018342;28;20053;-82
2021/05/04 01:24:53;;;;;;;6.82;2.70;;;;;;;13.52;37.03;98255.69;5033876;28;20418;-82
2021/05/04 01:27:20;;;;;;;3.33;2.50;;;;;;;13.56;36.71;98233.28;5033846;28;20407;-83
2021/05/04 01:29:46;;;;;;;4.10;2.80;;;;;;;13.62;36.42;98232.72;5032816;28;20057;-83
2021/05/04 01:32:12;;;;;;;8.07;2.78;;;;;;;13.68;36.24;98204.84;5033480;28;20128;-83
2021/05/04 01:34:39;;;;;;;7.13;2.55;;;;;;;13.77;36.40;98226.94;5033542;28;20053;-83
2021/05/04 01:37:05;;;;;;;6.20;2.95;;;;;;;13.77;36.22;98211.06;5032509;28;20049;-82
2021/05/04 01:39:47;;;;;;;3.78;2.60;;;;;;;13.83;35.98;98207.03;5033487;28;20522;-83
2021/05/04 01:42:15;;;;;;;5.85;2.50;;;;;;;13.92;35.83;98212.25;5034430;28;20079;-83
2021/05/04 01:44:42;;;;;;;8.07;2.63;;;;;;;14.01;35.95;98207.03;5048810;28;20053;-83
2021/05/04 01:47:08;;;;;;;8.27;2.60;;;;;;;14.06;35.64;98202.16;5023884;28;20045;-83
2021/05/04 01:49:35;;;;;;;5.13;2.40;;;;;;;14.10;35.61;98198.25;5013517;28;20050;-82
2021/05/04 01:52:03;;;;;;;6.40;2.55;;;;;;;14.17;35.63;98185.25;5013257;28;20052;-83
2021/05/04 01:54:29;;;;;;;7.35;2.10;;;;;;;14.18;35.56;98219.50;5012789;28;20061;-83
2021/05/04 01:56:58;;;;;;;9.02;2.33;;;;;;;14.19;35.56;98210.56;5013372;28;20057;-83
2021/05/04 01:59:28;;;;;;;8.50;2.42;;;;;;;14.17;35.40;98252.22;5012883;28;20495;-83
2021/05/04 02:01:56;;;;;;;7.40;1.95;;;;;;;14.16;35.48;98197.63;5014863;28;20054;-82
2021/05/04 02:04:24;;;;;;;5.72;1.88;;;;;;;14.18;35.66;98186.91;5031366;28;20049;-83
2021/05/04 02:06:51;;;;;;;3.47;1.85;;;;;;;14.20;35.67;98192.84;5032498;28;20049;-83
2021/05/04 02:09:18;;;;;;;11.40;1.90;;;;;;;14.15;35.58;98192.47;5032929;28;20088;-83
2021/05/04 02:11:44;;;;;;;5.55;1.98;;;;;;;14.16;36.19;98186.19;5031031;28;20057;-83
2021/05/04 02:14:11;;;;;;;5.95;2.20;;;;;;;14.12;36.24;98184.84;5031367;28;20046;-82
2021/05/04 02:16:37;;;;;;;16.95;2.35;;;;;;;14.04;36.22;98191.72;5032725;28;20045;-84
2021/05/04 02:19:04;;;;;;;8.75;2.30;;;;;;;13.98;37.01;98165.03;5022805;28;20467;-83
2021/05/04 02:21:30;;;;;;;4.80;2.00;;;;;;;13.88;38.03;98197.66;5014074;28;20064;-83
2021/05/04 02:23:57;;;;;;;15.30;2.33;;;;;;;13.77;39.35;98200.50;5014789;28;20046;-83
2021/05/04 02:26:23;;;;;;;9.48;2.03;;;;;;;13.69;39.55;98166.88;5015141;28;20048;-83
2021/05/04 02:28:49;;;;;;;7.70;1.80;;;;;;;13.49;40.82;98160.84;5014740;28;20061;-83
2021/05/04 02:31:15;;;;;;;4.82;1.90;;;;;;;13.31;41.00;98152.81;5018490;28;20503;-83
2021/05/04 02:33:42;;;;;;;4.35;2.10;;;;;;;13.14;41.17;98144.66;5019077;28;20686;-83
2021/05/04 02:36:09;;;;;;;5.05;1.50;;;;;;;12.98;41.46;98142.63;5016621;28;20049;-83
2021/05/04 02:38:35;;;;;;;7.18;1.88;;;;;;;12.79;42.00;98149.63;5015150;28;20050;-83
2021/05/04 02:41:04;;;;;;;9.45;1.85;;;;;;;12.67;41.85;98145.47;5015609;28;20136;-83
2021/05/04 02:43:30;;;;;;;2.42;1.85;;;;;;;12.56;42.23;98141.97;5016657;28;20050;-83
2021/05/04 02:45:56;;;;;;;4.05;1.70;;;;;;;12.48;42.84;98141.84;5015199;28;20067;-83
2021/05/04 02:48:22;;;;;;;7.50;1.90;;;;;;;12.45;43.00;98131.59;5016539;28;20104;-83
2021/05/04 02:50:49;;;;;;;2.78;1.45;;;;;;;12.41;43.58;98138.94;5015114;28;20053;-83
2021/05/04 02:53:15;;;;;;;3.10;2.53;;;;;;;12.33;44.63;98134.34;5015254;28;20057;-83
2021/05/04 02:55:42;;;;;;;5.57;2.10;;;;;;;12.23;45.07;98125.63;5015047;28;20050;-83
2021/05/04 02:58:08;;;;;;;10.13;2.00;;;;;;;12.10;45.63;98129.38;5017574;28;20053;-83
2021/05/04 03:00:35;;;;;;;11.27;2.38;;;;;;;11.96;46.46;98122.66;5017538;28;20053;-82
2021/05/04 03:03:01;;;;;;;4.85;1.92;;;;;;;11.82;48.46;98118.59;5016189;28;20396;-83
2021/05/04 03:05:27;;;;;;;5.65;1.92;;;;;;;11.69;47.82;98145.22;5016109;28;20061;-83
2021/05/04 03:07:53;;;;;;;5.50;2.10;;;;;;;11.53;49.51;98140.47;5015225;28;20058;-83
2021/05/04 03:10:19;;;;;;;3.22;1.95;;;;;;;11.33;50.80;98158.81;5016104;28;20050;-83
2021/05/04 03:12:46;;;;;;;4.38;1.70;;;;;;;11.22;49.93;98124.69;5014951;28;20058;-82
2021/05/04 03:15:12;;;;;;;4.43;2.17;;;;;;;11.06;51.10;98130.41;5016111;28;20057;-82
2021/05/04 03:17:38;;;;;;;5.05;2.10;;;;;;;10.92;51.30;98132.41;5014507;28;20052;-82
2021/05/04 03:20:06;;;;;;;5.35;2.00;;;;;;;10.78;51.77;98115.19;5015627;28;20569;-83
2021/05/04 03:22:32;;;;;;;7.53;2.22;;;;;;;10.65;52.32;98114.56;5015570;28;20061;-83
2021/05/04 03:24:58;;;;;;;6.38;1.90;;;;;;;10.54;52.41;98121.53;5016577;28;20061;-82
2021/05/04 03:27:24;;;;;;;2.40;2.00;;;;;;;10.42;53.04;98106.72;5027678;28;20411;-82
2021/05/04 03:29:50;;;;;;;3.50;2.03;;;;;;;10.32;53.96;98119.81;5035331;28;20045;-83
2021/05/04 03:32:17;;;;;;;2.03;1.70;;;;;;;10.24;53.64;98107.28;5034990;28;20498;-82
2021/05/04 03:34:43;;;;;;;5.43;1.98;;;;;;;10.16;54.51;98107.09;5035587;28;20758;-83
2021/05/04 03:37:09;;;;;;;13.32;2.10;;;;;;;10.10;54.64;98099.72;5035272;28;20056;-83
2021/05/04 03:39:36;;;;;;;4.47;1.60;;;;;;;10.04;55.00;98099.28;5035436;28;20053;-83
2021/05/04 03:42:02;;;;;;;5.15;1.95;;;;;;;10.00;55.51;98089.13;5035177;28;20049;-83
2021/05/04 03:44:28;;;;;;;4.50;2.15;;;;;;;9.93;56.26;98094.03;5036535;28;20049;-84
2021/05/04 03:46:54;;;;;;;5.50;1.77;;;;;;;9.89;56.74;98087.34;5037078;28;20471;-83
2021/05/04 03:49:20;;;;;;;4.22;2.30;;;;;;;9.85;56.76;98084.16;5036441;28;20128;-82
2021/05/04 03:51:46;;;;;;;5.38;1.98;;;;;;;9.81;57.51;98072.22;5035638;28;20402;-82
2021/05/04 03:54:12;;;;;;;2.70;1.70;;;;;;;9.78;57.80;98069.84;5034762;28;20454;-82
2021/05/04 03:56:39;;;;;;;4.60;1.95;;;;;;;9.73;58.57;98069.38;5035231;28;20478;-82
2021/05/04 03:59:05;;;;;;;7.55;2.15;;;;;;;9.69;58.79;98063.56;5035386;28;20053;-82
2021/05/04 04:01:31;;;;;;;5.88;2.10;;;;;;;9.67;59.46;98070.72;5035090;28;20053;-82
2021/05/04 04:04:00;;;;;;;5.07;1.90;;;;;;;9.63;60.68;98045.63;5036338;28;20045;-82
2021/05/04 04:06:26;;;;;;;5.53;1.83;;;;;;;9.61;59.22;98039.69;5034654;28;20068;-81
2021/05/04 04:08:52;;;;;;;3.08;1.60;;;;;;;9.59;59.57;98033.72;5034942;28;20494;-82
2021/05/04 04:11:18;;;;;;;4.05;2.33;;;;;;;9.56;59.66;98028.69;5034724;28;20056;-82
2021/05/04 04:13:45;;;;;;;2.47;2.08;;;;;;;9.52;60.29;98018.47;5034466;28;20085;-81
2021/05/04 04:16:11;;;;;;;3.60;2.22;;;;;;;9.50;60.57;98025.63;5034944;28;20053;-82
2021/05/04 04:18:37;;;;;;;5.00;1.95;;;;;;;9.46;61.30;98018.94;5035178;28;20053;-82
2021/05/04 04:21:04;;;;;;;3.75;1.75;;;;;;;9.45;61.18;98009.41;5034710;28;20053;-82
2021/05/04 04:23:30;;;;;;;7.90;2.50;;;;;;;9.42;61.96;97998.31;5034879;28;20053;-82
2021/05/04 04:25:56;;;;;;;3.78;1.63;;;;;;;9.41;61.52;97996.66;5034561;28;20056;-82
2021/05/04 04:28:22;;;;;;;5.78;2.20;;;;;;;9.39;62.18;97996.78;5034522;28;20049;-82
2021/05/04 04:30:48;;;;;;;2.58;1.80;;;;;;;9.37;62.09;97985.53;5034349;28;20045;-83
2021/05/04 04:33:14;;;;;;;6.07;2.47;;;;;;;9.33;64.28;97984.13;5034602;28;20053;-82
2021/05/04 04:35:40;;;;;;;6.30;2.20;;;;;;;9.30;63.49;97987.81;5028615;28;20053;-83
2021/05/04 04:38:06;;;;;;;3.70;1.77;;;;;;;9.30;62.66;97982.56;5014870;28;20435;-82
2021/05/04 04:40:33;;;;;;;4.45;1.98;;;;;;;9.30;63.08;97977.31;5015339;28;20058;-82
2021/05/04 04:42:59;;;;;;;4.20;1.92;;;;;;;9.30;62.50;97979.13;5014460;28;20518;-82
2021/05/04 04:45:25;;;;;;;4.88;2.15;;;;;;;9.28;63.53;97967.91;5016770;28;20064;-83
2021/05/04 04:47:51;;;;;;;7.07;2.00;;;;;;;9.30;63.33;97958.94;5015023;28;20046;-82
2021/05/04 04:50:17;;;;;;;8.15;3.20;;;;;;;9.28;64.39;97949.53;5029997;28;20071;-82
2021/05/04 04:52:43;;;;;;;7.60;2.05;;;;;;;9.27;63.79;97943.44;5033756;28;20057;-82
2021/05/04 04:55:10;;;;;;;7.47;2.20;;;;;;;9.26;63.72;97941.78;5032614;28;20521;-82
2021/05/04 04:57:36;;;;;;;6.47;2.42;;;;;;;9.26;64.41;97944.41;5032996;28;20490;-82
2021/05/04 05:00:03;;;;;;;2.28;1.60;;;;;;;9.29;63.73;97936.28;5034344;28;20056;-82
2021/05/04 05:02:29;;;;;;;3.78;2.00;;;;;;;9.33;63.40;97934.22;5032010;28;20045;-82
2021/05/04 05:04:55;;;;;;;7.28;2.17;;;;;;;9.32;64.34;97930.78;5032311;28;20099;-83
2021/05/04 05:07:21;;;;;;;3.40;1.70;;;;;;;9.34;64.20;97923.59;5033706;28;20049;-86
2021/05/04 05:09:48;;;;;;;2.55;2.20;;;;;;;9.33;64.54;97913.22;5033792;28;20045;-86
2021/05/04 05:12:14;;;;;;;4.85;1.92;;;;;;;9.36;63.92;97908.56;5032148;28;20135;-85
2021/05/04 05:14:41;;;;;;;4.80;2.22;;;;;;;9.36;64.85;97905.09;5013505;28;20064;-86
2021/05/04 05:17:08;;;;;;;6.32;2.17;;;;;;;9.36;64.54;97916.47;5012564;28;20050;-85
2021/05/04 05:19:35;;;;;;;6.93;2.30;;;;;;;9.39;64.17;97904.88;5013867;28;20057;-85
2021/05/04 05:22:01;;;;;;;4.97;2.10;;;;;;;9.41;64.45;97883.72;5012311;28;20495;-85
2021/05/04 05:24:28;;;;;;;4.63;2.15;;;;;;;9.44;64.35;97880.84;5028888;28;20045;-84
2021/05/04 05:26:54;;;;;;;4.95;2.10;;;;;;;9.47;63.78;97875.34;5019540;28;20045;-84
2021/05/04 05:29:20;;;;;;;3.22;2.30;;;;;;;9.46;64.71;97890.25;5011791;28;20514;-85
2021/05/04 05:31:47;;;;;;;5.40;2.03;;;;;;;9.51;63.97;97877.59;5013551;28;20415;-85
2021/05/04 05:34:13;;;;;;;5.18;2.28;;;;;;;9.51;64.70;97877.59;5026454;28;20445;-85
2021/05/04 05:36:39;;;;;;;4.93;2.00;;;;;;;9.53;64.57;97859.06;5032945;28;20052;-85
2021/05/04 05:39:06;;;;;;;6.65;2.15;;;;;;;9.55;64.53;97866.81;5032817;28;20050;-85
2021/05/04 05:41:32;;;;;;;8.82;2.28;;;;;;;9.52;65.65;97867.91;5032805;28;20060;-85
2021/05/04 05:43:58;;;;;;;4.45;2.10;;;;;;;9.54;64.70;97852.03;5019464;28;20054;-85
2021/05/04 05:46:24;;;;;;;3.28;2.28;;;;;;;9.50;65.92;97870.66;5019332;28;20053;-86
2021/05/04 05:48:51;;;;;;;3.63;2.10;;;;;;;9.52;65.19;97862.66;5031374;28;20517;-85
2021/05/04 05:51:17;;;;;;;2.90;2.05;;;;;;;9.51;64.76;97861.84;5048068;28;20064;-85
2021/05/04 05:53:43;;;;;;;3.10;2.25;;;;;;;9.49;65.60;97840.09;5035463;28;20048;-85
2021/05/04 05:56:09;;;;;;;8.25;2.33;;;;;;;9.46;65.90;97852.66;5052687;28;20045;-86
2021/05/04 05:58:35;;;;;;;3.50;2.28;;;;;;;9.46;66.54;97850.03;5053015;28;20096;-85
2021/05/04 06:01:02;;;;;;;2.72;2.05;;;;;;;9.44;65.87;97842.28;5052454;28;20048;-85
2021/05/04 06:03:30;;;;;;;4.07;2.67;;;;;;;9.44;66.04;97838.81;5051275;28;20494;-86
2021/05/04 06:05:56;;;;;;;4.85;2.20;;;;;;;9.45;66.41;97837.84;5050699;28;20056;-85
2021/05/04 06:08:23;;;;;;;2.97;2.20;;;;;;;9.44;66.45;97828.31;5052327;28;20053;-85
2021/05/04 06:10:50;;;;;;;4.38;2.58;;;;;;;9.45;66.58;97830.81;5051454;28;20150;-85
2021/05/04 06:13:16;;;;;;;6.53;2.70;;;;;;;9.45;67.22;97816.84;5045416;28;20503;-85
2021/05/04 06:15:43;;;;;;;2.85;1.92;;;;;;;9.46;66.59;97811.47;5032076;28;20053;-85
2021/05/04 06:18:10;;;;;;;2.30;2.10;;;;;;;9.48;66.90;97811.34;5031082;28;20071;-85
2021/05/04 06:20:37;;;;;;;4.85;2.55;;;;;;;9.48;67.37;97796.41;5031600;28;20050;-85
2021/05/04 06:23:04;;;;;;;7.32;2.95;;;;;;;9.50;67.49;97807.63;5031289;28;20053;-84
2021/05/04 06:25:31;;;;;;;2.65;2.20;;;;;;;9.51;66.85;97814.56;5032365;28;20050;-85
2021/05/04 06:28:01;;;;;;;3.95;2.05;;;;;;;9.57;66.87;97809.75;5032653;28;20045;-85
2021/05/04 06:30:32;;;;;;;3.33;2.28;;;;;;;9.59;66.95;97805.19;5032210;28;20445;-85
2021/05/04 06:33:04;;;;;;;4.13;2.60;;;;;;;9.62;67.79;97779.50;5032215;28;20056;-85
2021/05/04 06:35:31;;;;;;;2.60;2.28;;;;;;;9.67;67.58;97781.72;5031015;28;20053;-85
2021/05/04 06:37:57;;;;;;;2.22;2.03;;;;;;;9.74;66.70;97753.97;5031306;28;20050;-85
2021/05/04 06:40:23;;;;;;;5.25;2.25;;;;;;;9.80;66.59;97773.63;5031377;28;20052;-85
2021/05/04 06:42:49;;;;;;;3.30;2.50;;;;;;;9.85;66.34;97762.72;5032143;28;20056;-85
2021/05/04 06:45:15;;;;;;;2.63;2.03;;;;;;;9.88;66.43;97792.16;5011165;28;20058;-85
2021/05/04 06:47:42;;;;;;;3.28;2.42;;;;;;;9.92;65.86;97784.88;5012754;28;20045;-86
2021/05/04 06:50:08;;;;;;;4.13;2.50;;;;;;;9.94;66.21;97777.69;5011442;28;20083;-85
2021/05/04 06:52:34;;;;;;;4.00;2.63;;;;;;;9.96;66.31;97774.91;5012641;28;20061;-84
2021/05/04 06:55:01;;;;;;;6.10;2.45;;;;;;;10.01;66.23;97783.22;5012334;28;20108;-85
2021/05/04 06:57:27;;;;;;;7.50;2.88;;;;;;;10.00;66.34;97773.69;5012713;28;20579;-85
2021/05/04 06:59:53;;;;;;;5.22;2.30;;;;;;;10.01;66.12;97767.47;5011316;28;20053;-85
2021/05/04 07:02:19;;;;;;;7.63;2.90;;;;;;;10.01;66.09;97773.56;5012631;28;20056;-85
2021/05/04 07:04:46;;;;;;;3.33;2.30;;;;;;;10.01;66.29;97767.47;5011060;28;20054;-86
2021/05/04 07:07:12;;;;;;;5.32;2.10;;;;;;;9.98;66.39;97760.69;5012694;28;20048;-85
2021/05/04 07:09:39;;;;;;;5.28;2.40;;;;;;;9.97;66.55;97759.03;5022815;28;20104;-86
2021/05/04 07:12:05;;;;;;;2.72;2.45;;;;;;;9.97;66.52;97761.66;5032084;28;20056;-85
2021/05/04 07:14:32;;;;;;;3.55;2.40;;;;;;;9.97;66.70;97763.44;5031297;28;20060;-85
2021/05/04 07:17:00;;;;;;;4.50;2.38;;;;;;;9.97;66.88;97759.03;5034736;28;20041;-85
2021/05/04 07:19:27;;;;;;;2.40;2.20;;;;;;;9.97;66.72;97764.28;5026932;28;20058;-85
2021/05/04 07:21:54;;;;;;;4.85;2.80;;;;;;;9.98;67.50;97759.88;5015858;28;20054;-86
2021/05/04 07:24:21;;;;;;;3.72;2.85;;;;;;;9.97;67.23;97745.88;5015591;28;20054;-85
2021/05/04 07:26:47;;;;;;;5.15;2.45;;;;;;;9.98;67.37;97744.91;5016393;28;20430;-85
2021/05/04 07:29:14;;;;;;;5.40;3.28;;;;;;;9.97;67.52;97740.63;5029219;28;20050;-84
2021/05/04 07:31:41;;;;;;;3.45;2.53;;;;;;;9.95;67.99;97739.94;5035308;28;20056;-85
2021/05/04 07:34:09;;;;;;;3.60;3.08;;;;;;;9.96;68.01;97754.75;5033649;28;20491;-85
2021/05/04 07:36:36;;;;;;;4.35;2.70;;;;;;;9.96;67.70;97753.91;5050729;28;20053;-85
2021/05/04 07:39:06;;;;;;;5.10;3.10;;;;;;;9.94;68.35;97738.25;5035375;28;20510;-85
2021/05/04 07:41:34;;;;;;;3.30;2.97;;;;;;;9.95;68.05;97736.47;5036339;28;20085;-85
2021/05/04 07:44:01;;;;;;;3.17;2.58;;;;;;;9.95;67.77;97731.22;5034838;28;20069;-86
2021/05/04 07:46:28;;;;;;;3.33;2.55;;;;;;;9.98;67.55;97725.69;5035111;28;20060;-85
2021/05/04 07:48:57;;;;;;;4.32;2.85;;;;;;;10.00;67.62;97724.59;5035501;28;20418;-86
2021/05/04 07:51:36;;;;;;;3.85;2.72;;;;;;;10.02;67.99;97713.94;5035057;28;20505;-85
2021/05/04 07:54:03;;;;;;;4.03;3.25;;;;;;;10.03;68.85;97721.69;5049596;28;20132;-85
2021/05/04 07:56:29;;;;;;;3.65;2.85;;;;;;;10.10;68.26;97708.81;5049847;28;20049;-86
2021/05/04 07:58:55;;;;;;;3.47;2.80;;;;;;;10.18;68.13;97726.56;5034937;28;20059;-86
2021/05/04 08:01:22;;;;;;;6.82;2.70;;;;;;;10.22;68.02;97706.09;5050314;28;20448;-86
2021/05/04 08:03:48;;;;;;;4.45;2.42;;;;;;;10.27;67.71;97715.22;5049696;28;20060;-86
2021/05/04 08:06:14;;;;;;;6.82;2.72;;;;;;;10.33;67.72;97718.28;5033795;28;20053;-86
2021/05/04 08:08:41;;;;;;;5.28;2.38;;;;;;;10.36;67.37;97716.19;5034372;28;20057;-86
2021/05/04 08:11:07;;;;;;;2.63;2.33;;;;;;;10.40;67.32;97727.28;5049845;28;20072;-86
2021/05/04 08:13:33;;;;;;;4.22;2.75;;;;;;;10.42;67.37;97725.34;5034513;28;20054;-86
2021/05/04 08:16:03;;;;;;;7.15;2.60;;;;;;;10.47;67.33;97724.97;5034172;28;20049;-85
2021/05/04 08:18:30;;;;;;;4.50;2.47;;;;;;;10.49;67.47;97718.59;5049716;28;20096;-86
2021/05/04 08:20:57;;;;;;;3.92;2.50;;;;;;;10.52;67.65;97728.88;5034591;28;20060;-86
2021/05/04 08:23:25;;;;;;;3.92;2.33;;;;;;;10.55;67.69;97725.13;5034280;28;20053;-86
2021/05/04 08:25:54;;;;;;;5.28;2.17;;;;;;;10.58;67.72;97731.91;5033776;28;20050;-85
2021/05/04 08:28:21;;;;;;;6.85;2.15;;;;;;;10.59;67.86;97730.94;5033183;28;20056;-86
2021/05/04 08:30:47;;;;;;;4.53;1.83;;;;;;;10.60;67.28;97733.44;5033804;28;20075;-86
2021/05/04 08:33:14;;;;;;;7.70;2.30;;;;;;;10.62;67.46;97735.94;5034422;28;20072;-85
2021/05/04 08:35:40;;;;;;;5.13;2.08;;;;;;;10.65;67.57;97738.28;5034262;28;20426;-85
2021/05/04 08:38:07;;;;;;;4.13;2.00;;;;;;;10.68;67.56;97717.78;5033395;28;20060;-86
2021/05/04 08:40:33;;;;;;;2.50;1.80;;;;;;;10.74;67.69;97715.56;5034435;28;20053;-86
2021/05/04 08:42:59;;;;;;;2.72;1.77;;;;;;;10.79;67.31;97742.28;5038077;28;20061;-85
2021/05/04 08:45:27;;;;;;;2.80;1.70;;;;;;;10.84;67.26;97732.16;5036462;28;20053;-86
2021/05/04 08:47:54;;;;;;;2.35;1.40;;;;;;;10.90;67.09;97725.53;5027615;28;20049;-85
2021/05/04 08:50:21;;;;;;;5.00;1.50;;;;;;;10.94;67.39;97716.38;5014418;28;20077;-86
2021/05/04 08:52:49;;;;;;;4.35;1.75;;;;;;;11.00;66.98;97741.31;5014179;28;20419;-85
2021/05/04 08:55:16;;;;;;;3.10;1.70;;;;;;;11.04;67.02;97750.59;5015803;28;20049;-85
2021/05/04 08:57:42;;;;;;;3.80;1.60;;;;;;;11.10;66.94;97743.94;5018452;28;20449;-85
2021/05/04 09:00:11;;;;;;;2.42;1.40;;;;;;;11.12;66.70;97740.19;5033693;28;20136;-86
2021/05/04 09:03:09;;;;;;;1.88;1.30;;;;;;;11.13;67.15;97759.44;5033677;28;20053;-85
2021/05/04 09:06:11;;;;;;;1.63;1.30;;;;;;;11.18;66.63;97736.97;5031982;28;20049;-86
2021/05/04 09:11:49;;;;;;;3.10;1.30;;;;;;;11.24;66.97;97732.09;5033587;28;20049;-87
2021/05/04 09:17:10;;;;;;;2.22;1.30;;;;;;;11.34;66.89;97717.94;5033150;28;20052;-85
2021/05/04 09:22:17;;;;;;;2.90;1.42;;;;;;;11.51;66.78;97706.81;5019394;28;20070;-87
2021/05/04 09:24:44;;;;;;;1.48;1.27;;;;;;;11.54;66.75;97702.09;5013756;28;20085;-86
2021/05/04 09:27:14;;;;;;;2.88;1.55;;;;;;;11.60;67.41;97685.69;5012674;28;20076;-86
2021/05/04 09:29:53;;;;;;;1.48;1.20;;;;;;;11.70;67.54;97696.19;5012350;28;20511;-86
2021/05/04 09:32:22;;;;;;;3.40;1.50;;;;;;;11.83;68.33;97689.75;5013441;28;20060;-85
2021/05/04 09:34:59;;;;;;;2.25;1.30;;;;;;;11.98;68.64;97677.75;5015653;28;20132;-86
2021/05/04 09:37:26;;;;;;;4.65;1.30;;;;;;;12.17;67.66;97659.31;5013460;28;20049;-85
2021/05/04 09:39:54;;;;;;;2.65;1.50;;;;;;;12.29;66.60;97676.56;5014221;28;20065;-86
2021/05/04 09:42:20;;;;;;;4.80;1.63;;;;;;;12.34;65.15;97687.50;5015486;28;20062;-86
2021/05/04 09:44:48;;;;;;;1.55;1.20;;;;;;;12.40;64.59;97672.88;5014095;28;20053;-86
2021/05/04 09:47:23;;;;;;;2.55;1.42;;;;;;;12.45;64.45;97677.72;5014959;28;20089;-85
2021/05/04 09:49:50;;;;;;;5.40;1.77;;;;;;;12.48;64.38;97675.59;5012966;28;20141;-86
2021/05/04 09:55:16;;;;;;;1.55;1.23;;;;;;;12.44;62.35;97679.53;5031962;28;20065;-86
2021/05/04 09:57:49;;;;;;;3.25;1.40;;;;;;;12.47;63.33;97667.84;5032360;28;20046;-86
2021/05/04 10:00:17;;;;;;;3.72;1.38;;;;;;;12.46;62.91;97658.25;5032725;28;20057;-86
2021/05/04 10:02:45;;;;;;;4.63;1.58;;;;;;;12.46;62.75;97682.00;5014397;28;20057;-86
2021/05/04 10:05:14;;;;;;;1.50;1.40;;;;;;;12.45;62.98;97686.44;5010876;28;20084;-86
2021/05/04 10:07:41;;;;;;;3.95;1.83;;;;;;;12.46;62.91;97671.47;5012036;28;20745;-86
2021/05/04 10:10:10;;;;;;;4.53;1.70;;;;;;;12.45;62.70;97675.09;5012015;28;20049;-86
2021/05/04 10:12:37;;;;;;;3.13;1.30;;;;;;;12.43;62.61;97664.69;5027497;28;20053;-86
2021/05/04 10:15:07;;;;;;;1.60;1.00;;;;;;;12.40;61.93;97688.72;5012229;28;20499;-86
2021/05/04 10:17:38;;;;;;;4.07;0.93;;;;;;;12.36;61.42;97677.66;5012623;28;20049;-86
2021/05/04 10:20:17;;;;;;;3.58;1.00;;;;;;;12.43;62.07;97659.41;5012033;28;20462;-86
2021/05/04 10:22:46;;;;;;;1.63;0.90;;;;;;;12.48;62.13;97662.41;5012485;28;20060;-86
2021/05/04 10:25:15;;;;;;;0.98;0.85;;;;;;;12.51;62.48;97672.66;5012581;28;20057;-87
2021/05/04 10:27:45;;;;;;;2.65;0.90;;;;;;;12.54;61.77;97657.50;5012660;28;20057;-88
2021/05/04 10:30:12;;;;;;;1.83;0.90;;;;;;;12.61;62.32;97677.88;5011604;28;20057;-88
2021/05/04 10:32:53;;;;;;;2.78;1.33;;;;;;;12.58;60.73;97659.69;5012813;28;20061;-87
2021/05/04 10:35:28;;;;;;;5.38;1.10;;;;;;;12.62;60.65;97683.97;5012818;28;20061;-87
2021/05/04 10:38:03;;;;;;;5.22;1.17;;;;;;;12.62;61.21;97661.03;5012913;28;20050;-88
2021/05/04 10:40:31;;;;;;;5.03;1.33;;;;;;;12.59;62.01;97658.72;5012747;28;20458;-86
2021/05/04 10:43:22;;;;;;;4.97;1.17;;;;;;;12.49;62.47;97652.69;5011844;28;20054;-86
2021/05/04 10:45:59;;;;;;;4.72;1.38;;;;;;;12.35;62.83;97665.44;5012711;28;20054;-87
2021/05/04 10:48:38;;;;;;;7.65;1.20;;;;;;;12.21;63.60;97668.59;5010780;28;20046;-86
2021/05/04 10:51:09;;;;;;;5.45;1.50;;;;;;;12.04;63.96;97675.47;5015492;28;20076;-86
2021/05/04 10:53:55;;;;;;;4.25;1.48;;;;;;;11.85;65.20;97669.34;5035698;28;20053;-86
2021/05/04 10:57:07;;;;;;;3.17;1.23;;;;;;;11.68;66.31;97644.59;5034129;28;20053;-86
2021/05/04 10:59:34;;;;;;;5.72;1.70;;;;;;;11.66;66.80;97646.56;5023158;28;20057;-85
2021/05/04 11:02:10;;;;;;;5.03;1.70;;;;;;;11.70;70.89;97659.28;5014384;28;20107;-87
2021/05/04 11:04:45;;;;;;;7.13;2.00;;;;;;;11.96;71.15;97618.22;5015446;28;20053;-86
2021/05/04 11:07:12;;;;;;;8.93;2.30;;;;;;;12.33;72.78;97626.97;5015420;28;20042;-86
2021/05/04 11:09:40;;;;;;;6.63;2.22;;;;;;;12.67;70.66;97628.91;5024769;28;20045;-87
2021/05/04 11:12:08;;;;;;;7.30;2.15;;;;;;;13.00;69.59;97633.56;5035897;28;20061;-86
2021/05/04 11:14:39;;;;;;;7.47;1.92;;;;;;;13.22;67.50;97637.50;5035803;28;20049;-87
2021/05/04 11:17:06;;;;;;;4.25;1.88;;;;;;;13.36;66.12;97630.81;5018148;28;20484;-87
2021/05/04 11:19:37;;;;;;;6.55;2.60;;;;;;;13.42;65.56;97627.50;5020635;28;20053;-87
2021/05/04 11:22:15;;;;;;;6.63;2.22;;;;;;;13.45;64.19;97628.19;5015507;28;20050;-86
2021/05/04 11:24:48;;;;;;;3.50;1.40;;;;;;;13.44;63.50;97630.00;5015642;28;20530;-87
2021/05/04 11:27:18;;;;;;;8.02;1.95;;;;;;;13.34;63.28;97656.53;5014751;28;20419;-87
2021/05/04 11:29:47;;;;;;;5.85;1.77;;;;;;;13.21;62.87;97693.13;5017538;28;20550;-87
2021/05/04 11:32:29;;;;;;;9.20;2.28;;;;;;;13.02;63.54;97745.19;5034166;28;20045;-85
2021/05/04 11:35:00;;;;;;;5.43;1.85;;;;;;;12.82;62.62;97691.72;5037032;28;20068;-85
2021/05/04 11:37:28;;;;;;;4.10;1.67;;;;;;;12.59;63.60;97690.38;5037262;28;20053;-85
2021/05/04 11:39:58;;;;;;;7.60;2.20;;;;;;;12.31;63.96;97692.25;5019713;28;20046;-86
2021/05/04 11:42:42;;;;;;;7.90;2.20;;;;;;;12.00;63.78;97764.56;5015408;28;20061;-85
2021/05/04 11:45:08;;;;;;;8.80;2.05;;;;;;;11.73;64.64;97724.91;5013980;28;20418;-85
2021/05/04 11:47:46;;;;;;;5.88;1.88;;;;;;;11.53;65.77;97702.22;5014852;28;20491;-85
2021/05/04 11:50:33;;;;;;;6.40;1.77;;;;;;;11.35;67.31;97729.31;5016225;28;20046;-85
2021/05/04 11:53:02;;;;;;;7.93;2.30;;;;;;;11.23;68.33;97733.09;5031337;28;20049;-85